sensor_id;sensor_type;location;lat;lon;timestamp;P1;durP1;ratioP1;P2;durP2;ratioP2
84834;SDS011;75078;42.636;23.198;2024-03-23T00:55:29;8.32;;;4.05;;
84834;SDS011;75078;42.636;23.198;2024-03-23T00:57:54;17.88;;;7.82;;
84834;SDS011;75078;42.636;23.198;2024-03-23T01:00:19;20.20;;;9.25;;
84834;SDS011;75078;42.636;23.198;2024-03-23T01:02:45;19.77;;;10.27;;
84834;SDS011;75078;42.636;23.198;2024-03-23T01:05:11;22.77;;;11.10;;
84834;SDS011;75078;42.636;23.198;2024-03-23T01:07:36;22.80;;;10.00;;
84834;SDS011;75078;42.636;23.198;2024-03-23T01:10:01;8.50;;;5.63;;
84834;SDS011;75078;42.636;23.198;2024-03-23T01:12:27;4.57;;;2.45;;
84834;SDS011;75078;42.636;23.198;2024-03-23T01:14:52;11.75;;;7.55;;
84834;SDS011;75078;42.636;23.198;2024-03-23T01:17:17;11.25;;;5.88;;
84834;SDS011;75078;42.636;23.198;2024-03-23T01:19:43;10.07;;;6.97;;
84834;SDS011;75078;42.636;23.198;2024-03-23T01:22:08;14.38;;;7.57;;
84834;SDS011;75078;42.636;23.198;2024-03-23T01:24:35;11.63;;;7.20;;
84834;SDS011;75078;42.636;23.198;2024-03-23T01:27:00;5.82;;;4.47;;
84834;SDS011;75078;42.636;23.198;2024-03-23T01:29:26;9.98;;;5.53;;
84834;SDS011;75078;42.636;23.198;2024-03-23T01:31:51;12.07;;;7.32;;
84834;SDS011;75078;42.636;23.198;2024-03-23T01:34:16;12.80;;;5.53;;
84834;SDS011;75078;42.636;23.198;2024-03-23T01:36:42;12.07;;;6.80;;
84834;SDS011;75078;42.636;23.198;2024-03-23T01:39:07;19.77;;;7.97;;
84834;SDS011;75078;42.636;23.198;2024-03-23T01:41:34;23.10;;;10.80;;
84834;SDS011;75078;42.636;23.198;2024-03-23T01:44:00;20.70;;;9.73;;
84834;SDS011;75078;42.636;23.198;2024-03-23T01:46:31;25.48;;;10.38;;
84834;SDS011;75078;42.636;23.198;2024-03-23T01:48:56;18.52;;;9.50;;
84834;SDS011;75078;42.636;23.198;2024-03-23T01:51:22;12.15;;;7.22;;
84834;SDS011;75078;42.636;23.198;2024-03-23T01:53:48;11.43;;;6.82;;
84834;SDS011;75078;42.636;23.198;2024-03-23T01:56:14;13.25;;;6.90;;
84834;SDS011;75078;42.636;23.198;2024-03-23T01:58:39;20.60;;;8.23;;
84834;SDS011;75078;42.636;23.198;2024-03-23T02:01:04;14.02;;;6.88;;
84834;SDS011;75078;42.636;23.198;2024-03-23T02:03:30;12.50;;;7.63;;
84834;SDS011;75078;42.636;23.198;2024-03-23T02:05:56;14.02;;;7.97;;
84834;SDS011;75078;42.636;23.198;2024-03-23T02:08:22;18.75;;;7.55;;
84834;SDS011;75078;42.636;23.198;2024-03-23T02:10:51;21.60;;;10.02;;
84834;SDS011;75078;42.636;23.198;2024-03-23T02:13:17;23.42;;;9.55;;
84834;SDS011;75078;42.636;23.198;2024-03-23T02:15:43;21.33;;;9.18;;
84834;SDS011;75078;42.636;23.198;2024-03-23T02:18:09;24.90;;;8.75;;
84834;SDS011;75078;42.636;23.198;2024-03-23T02:20:35;14.68;;;7.78;;
84834;SDS011;75078;42.636;23.198;2024-03-23T02:23:01;21.80;;;9.77;;
84834;SDS011;75078;42.636;23.198;2024-03-23T02:25:26;21.40;;;8.27;;
84834;SDS011;75078;42.636;23.198;2024-03-23T02:27:52;10.18;;;5.25;;
84834;SDS011;75078;42.636;23.198;2024-03-23T02:30:19;9.27;;;4.80;;
84834;SDS011;75078;42.636;23.198;2024-03-23T02:32:45;5.57;;;4.07;;
84834;SDS011;75078;42.636;23.198;2024-03-23T02:35:10;8.52;;;5.10;;
84834;SDS011;75078;42.636;23.198;2024-03-23T02:37:35;9.32;;;5.55;;
84834;SDS011;75078;42.636;23.198;2024-03-23T02:40:01;10.35;;;6.43;;
84834;SDS011;75078;42.636;23.198;2024-03-23T02:42:26;13.15;;;7.00;;
84834;SDS011;75078;42.636;23.198;2024-03-23T02:44:52;23.58;;;11.32;;
84834;SDS011;75078;42.636;23.198;2024-03-23T02:47:17;17.67;;;9.10;;
84834;SDS011;75078;42.636;23.198;2024-03-23T02:49:42;14.43;;;8.35;;
84834;SDS011;75078;42.636;23.198;2024-03-23T02:52:08;10.20;;;5.35;;
84834;SDS011;75078;42.636;23.198;2024-03-23T02:54:33;8.98;;;4.10;;
84834;SDS011;75078;42.636;23.198;2024-03-23T02:56:58;8.82;;;4.78;;
84834;SDS011;75078;42.636;23.198;2024-03-23T02:59:24;5.63;;;3.92;;
84834;SDS011;75078;42.636;23.198;2024-03-23T03:01:49;4.20;;;3.45;;
84834;SDS011;75078;42.636;23.198;2024-03-23T03:04:15;4.82;;;3.28;;
84834;SDS011;75078;42.636;23.198;2024-03-23T03:06:40;7.25;;;4.75;;
84834;SDS011;75078;42.636;23.198;2024-03-23T03:09:06;9.23;;;5.28;;
84834;SDS011;75078;42.636;23.198;2024-03-23T03:11:31;5.10;;;3.85;;
84834;SDS011;75078;42.636;23.198;2024-03-23T03:13:56;7.45;;;5.47;;
84834;SDS011;75078;42.636;23.198;2024-03-23T03:16:22;8.30;;;4.47;;
84834;SDS011;75078;42.636;23.198;2024-03-23T03:18:47;8.10;;;5.90;;
84834;SDS011;75078;42.636;23.198;2024-03-23T03:21:12;8.82;;;5.40;;
84834;SDS011;75078;42.636;23.198;2024-03-23T03:23:38;7.43;;;5.55;;
84834;SDS011;75078;42.636;23.198;2024-03-23T03:26:04;12.63;;;7.00;;
84834;SDS011;75078;42.636;23.198;2024-03-23T03:28:31;9.13;;;4.88;;
84834;SDS011;75078;42.636;23.198;2024-03-23T03:30:57;6.07;;;4.47;;
84834;SDS011;75078;42.636;23.198;2024-03-23T03:33:23;5.25;;;4.75;;
84834;SDS011;75078;42.636;23.198;2024-03-23T03:35:48;4.97;;;4.35;;
84834;SDS011;75078;42.636;23.198;2024-03-23T03:38:14;8.20;;;5.28;;
84834;SDS011;75078;42.636;23.198;2024-03-23T03:40:39;5.72;;;5.15;;
84834;SDS011;75078;42.636;23.198;2024-03-23T03:43:06;10.77;;;6.95;;
84834;SDS011;75078;42.636;23.198;2024-03-23T03:45:31;10.18;;;5.63;;
84834;SDS011;75078;42.636;23.198;2024-03-23T03:47:57;9.93;;;6.03;;
84834;SDS011;75078;42.636;23.198;2024-03-23T03:50:22;8.55;;;6.15;;
84834;SDS011;75078;42.636;23.198;2024-03-23T03:52:48;11.07;;;7.13;;
84834;SDS011;75078;42.636;23.198;2024-03-23T03:55:13;7.65;;;6.55;;
84834;SDS011;75078;42.636;23.198;2024-03-23T03:57:39;6.50;;;5.75;;
84834;SDS011;75078;42.636;23.198;2024-03-23T04:00:05;6.55;;;5.30;;
84834;SDS011;75078;42.636;23.198;2024-03-23T04:02:31;10.02;;;6.03;;
84834;SDS011;75078;42.636;23.198;2024-03-23T04:04:56;11.77;;;7.57;;
84834;SDS011;75078;42.636;23.198;2024-03-23T04:07:22;10.98;;;6.90;;
84834;SDS011;75078;42.636;23.198;2024-03-23T04:09:48;7.80;;;4.78;;
84834;SDS011;75078;42.636;23.198;2024-03-23T04:12:14;16.92;;;7.63;;
84834;SDS011;75078;42.636;23.198;2024-03-23T04:14:40;26.25;;;8.98;;
84834;SDS011;75078;42.636;23.198;2024-03-23T04:17:05;38.45;;;11.18;;
84834;SDS011;75078;42.636;23.198;2024-03-23T04:19:31;32.03;;;10.80;;
84834;SDS011;75078;42.636;23.198;2024-03-23T04:21:56;58.63;;;11.82;;
84834;SDS011;75078;42.636;23.198;2024-03-23T04:24:22;51.05;;;12.48;;
84834;SDS011;75078;42.636;23.198;2024-03-23T04:26:47;82.10;;;18.15;;
84834;SDS011;75078;42.636;23.198;2024-03-23T04:29:13;41.05;;;13.45;;
84834;SDS011;75078;42.636;23.198;2024-03-23T04:31:38;15.25;;;7.72;;
84834;SDS011;75078;42.636;23.198;2024-03-23T04:34:04;16.85;;;7.78;;
84834;SDS011;75078;42.636;23.198;2024-03-23T04:36:29;14.65;;;8.30;;
84834;SDS011;75078;42.636;23.198;2024-03-23T04:38:55;25.27;;;9.18;;
84834;SDS011;75078;42.636;23.198;2024-03-23T04:41:21;15.93;;;7.43;;
84834;SDS011;75078;42.636;23.198;2024-03-23T04:43:47;13.18;;;7.18;;
84834;SDS011;75078;42.636;23.198;2024-03-23T04:46:12;10.88;;;6.55;;
84834;SDS011;75078;42.636;23.198;2024-03-23T04:48:37;8.05;;;5.57;;
84834;SDS011;75078;42.636;23.198;2024-03-23T04:51:03;11.00;;;5.43;;
84834;SDS011;75078;42.636;23.198;2024-03-23T04:53:29;17.67;;;12.65;;
84834;SDS011;75078;42.636;23.198;2024-03-23T04:55:55;17.35;;;11.05;;
84834;SDS011;75078;42.636;23.198;2024-03-23T04:58:21;36.78;;;26.48;;
84834;SDS011;75078;42.636;23.198;2024-03-23T05:00:47;19.40;;;11.98;;
84834;SDS011;75078;42.636;23.198;2024-03-23T05:03:12;21.55;;;18.25;;
84834;SDS011;75078;42.636;23.198;2024-03-23T05:05:37;35.97;;;29.85;;
84834;SDS011;75078;42.636;23.198;2024-03-23T05:08:03;18.75;;;16.67;;
84834;SDS011;75078;42.636;23.198;2024-03-23T05:10:29;13.40;;;9.38;;
84834;SDS011;75078;42.636;23.198;2024-03-23T05:12:54;6.88;;;5.25;;
84834;SDS011;75078;42.636;23.198;2024-03-23T05:15:20;6.88;;;4.25;;
84834;SDS011;75078;42.636;23.198;2024-03-23T05:17:45;4.93;;;3.75;;
84834;SDS011;75078;42.636;23.198;2024-03-23T05:20:10;6.05;;;4.65;;
84834;SDS011;75078;42.636;23.198;2024-03-23T05:22:37;5.57;;;4.25;;
84834;SDS011;75078;42.636;23.198;2024-03-23T05:25:02;8.32;;;4.72;;
84834;SDS011;75078;42.636;23.198;2024-03-23T05:27:30;6.43;;;4.65;;
84834;SDS011;75078;42.636;23.198;2024-03-23T05:29:56;6.13;;;4.60;;
84834;SDS011;75078;42.636;23.198;2024-03-23T05:32:22;6.68;;;4.72;;
84834;SDS011;75078;42.636;23.198;2024-03-23T05:34:47;6.93;;;4.35;;
84834;SDS011;75078;42.636;23.198;2024-03-23T05:37:12;5.75;;;4.88;;
84834;SDS011;75078;42.636;23.198;2024-03-23T05:39:38;7.88;;;4.75;;
84834;SDS011;75078;42.636;23.198;2024-03-23T05:42:03;8.35;;;5.50;;
84834;SDS011;75078;42.636;23.198;2024-03-23T05:44:29;7.63;;;5.22;;
84834;SDS011;75078;42.636;23.198;2024-03-23T05:46:54;5.47;;;4.85;;
84834;SDS011;75078;42.636;23.198;2024-03-23T05:49:20;10.23;;;6.82;;
84834;SDS011;75078;42.636;23.198;2024-03-23T05:51:46;18.02;;;7.00;;
84834;SDS011;75078;42.636;23.198;2024-03-23T05:54:11;23.10;;;8.70;;
84834;SDS011;75078;42.636;23.198;2024-03-23T05:56:36;19.60;;;7.55;;
84834;SDS011;75078;42.636;23.198;2024-03-23T05:59:02;16.00;;;8.43;;
84834;SDS011;75078;42.636;23.198;2024-03-23T06:01:28;10.32;;;7.25;;
84834;SDS011;75078;42.636;23.198;2024-03-23T06:03:54;21.05;;;8.93;;
84834;SDS011;75078;42.636;23.198;2024-03-23T06:06:19;16.67;;;7.40;;
84834;SDS011;75078;42.636;23.198;2024-03-23T06:08:44;5.57;;;4.20;;
84834;SDS011;75078;42.636;23.198;2024-03-23T06:11:10;4.00;;;3.60;;
84834;SDS011;75078;42.636;23.198;2024-03-23T06:13:35;5.78;;;3.97;;
84834;SDS011;75078;42.636;23.198;2024-03-23T06:16:01;5.00;;;4.03;;
84834;SDS011;75078;42.636;23.198;2024-03-23T06:18:26;4.18;;;3.65;;
84834;SDS011;75078;42.636;23.198;2024-03-23T06:20:52;6.13;;;4.18;;
84834;SDS011;75078;42.636;23.198;2024-03-23T06:23:18;5.20;;;4.70;;
84834;SDS011;75078;42.636;23.198;2024-03-23T06:25:45;7.30;;;4.03;;
84834;SDS011;75078;42.636;23.198;2024-03-23T06:28:10;6.57;;;3.97;;
84834;SDS011;75078;42.636;23.198;2024-03-23T06:30:36;7.55;;;4.05;;
84834;SDS011;75078;42.636;23.198;2024-03-23T06:33:01;7.75;;;4.97;;
84834;SDS011;75078;42.636;23.198;2024-03-23T06:35:27;5.82;;;4.60;;
84834;SDS011;75078;42.636;23.198;2024-03-23T06:37:52;6.53;;;4.75;;
84834;SDS011;75078;42.636;23.198;2024-03-23T06:40:18;6.45;;;4.07;;
84834;SDS011;75078;42.636;23.198;2024-03-23T06:42:43;5.60;;;4.57;;
84834;SDS011;75078;42.636;23.198;2024-03-23T06:45:08;6.70;;;3.95;;
84834;SDS011;75078;42.636;23.198;2024-03-23T06:47:34;5.95;;;4.18;;
84834;SDS011;75078;42.636;23.198;2024-03-23T06:50:00;16.13;;;7.22;;
84834;SDS011;75078;42.636;23.198;2024-03-23T06:52:27;12.23;;;6.15;;
84834;SDS011;75078;42.636;23.198;2024-03-23T06:54:53;19.05;;;8.15;;
84834;SDS011;75078;42.636;23.198;2024-03-23T06:57:18;13.30;;;6.45;;
84834;SDS011;75078;42.636;23.198;2024-03-23T06:59:43;14.07;;;6.65;;
84834;SDS011;75078;42.636;23.198;2024-03-23T07:02:09;10.60;;;6.30;;
84834;SDS011;75078;42.636;23.198;2024-03-23T07:04:34;12.35;;;6.03;;
84834;SDS011;75078;42.636;23.198;2024-03-23T07:07:00;6.13;;;4.68;;
84834;SDS011;75078;42.636;23.198;2024-03-23T07:09:29;12.52;;;5.18;;
84834;SDS011;75078;42.636;23.198;2024-03-23T07:11:55;6.75;;;4.70;;
84834;SDS011;75078;42.636;23.198;2024-03-23T07:14:21;7.40;;;5.72;;
84834;SDS011;75078;42.636;23.198;2024-03-23T07:16:47;7.68;;;5.68;;
84834;SDS011;75078;42.636;23.198;2024-03-23T07:19:14;9.75;;;5.85;;
84834;SDS011;75078;42.636;23.198;2024-03-23T07:21:41;13.35;;;6.47;;
84834;SDS011;75078;42.636;23.198;2024-03-23T07:24:07;6.90;;;4.78;;
84834;SDS011;75078;42.636;23.198;2024-03-23T07:26:32;7.03;;;5.55;;
84834;SDS011;75078;42.636;23.198;2024-03-23T07:28:57;6.40;;;5.45;;
84834;SDS011;75078;42.636;23.198;2024-03-23T07:31:23;6.03;;;4.70;;
84834;SDS011;75078;42.636;23.198;2024-03-23T07:33:49;15.30;;;5.00;;
84834;SDS011;75078;42.636;23.198;2024-03-23T07:36:14;8.65;;;4.40;;
84834;SDS011;75078;42.636;23.198;2024-03-23T07:38:40;5.57;;;3.92;;
84834;SDS011;75078;42.636;23.198;2024-03-23T07:41:07;3.78;;;3.47;;
84834;SDS011;75078;42.636;23.198;2024-03-23T07:43:34;4.10;;;3.80;;
84834;SDS011;75078;42.636;23.198;2024-03-23T07:46:00;7.82;;;4.30;;
84834;SDS011;75078;42.636;23.198;2024-03-23T07:48:26;8.00;;;4.32;;
84834;SDS011;75078;42.636;23.198;2024-03-23T07:51:02;6.22;;;4.53;;
84834;SDS011;75078;42.636;23.198;2024-03-23T07:53:31;4.70;;;4.25;;
84834;SDS011;75078;42.636;23.198;2024-03-23T07:56:09;5.35;;;3.83;;
84834;SDS011;75078;42.636;23.198;2024-03-23T07:58:35;5.63;;;4.43;;
84834;SDS011;75078;42.636;23.198;2024-03-23T08:01:04;6.13;;;4.13;;
84834;SDS011;75078;42.636;23.198;2024-03-23T08:03:32;4.28;;;3.83;;
84834;SDS011;75078;42.636;23.198;2024-03-23T08:06:00;5.95;;;4.30;;
84834;SDS011;75078;42.636;23.198;2024-03-23T08:08:31;6.97;;;4.65;;
84834;SDS011;75078;42.636;23.198;2024-03-23T08:10:57;4.20;;;3.90;;
84834;SDS011;75078;42.636;23.198;2024-03-23T08:13:22;5.88;;;4.30;;
84834;SDS011;75078;42.636;23.198;2024-03-23T08:15:47;5.45;;;4.13;;
84834;SDS011;75078;42.636;23.198;2024-03-23T08:18:13;6.55;;;3.75;;
84834;SDS011;75078;42.636;23.198;2024-03-23T08:20:40;3.97;;;3.67;;
84834;SDS011;75078;42.636;23.198;2024-03-23T08:23:06;3.95;;;3.50;;
84834;SDS011;75078;42.636;23.198;2024-03-23T08:25:32;4.88;;;3.25;;
84834;SDS011;75078;42.636;23.198;2024-03-23T08:27:58;3.40;;;3.10;;
84834;SDS011;75078;42.636;23.198;2024-03-23T08:30:23;3.90;;;3.60;;
84834;SDS011;75078;42.636;23.198;2024-03-23T08:32:49;4.22;;;3.50;;
84834;SDS011;75078;42.636;23.198;2024-03-23T08:35:14;4.15;;;3.78;;
84834;SDS011;75078;42.636;23.198;2024-03-23T08:37:40;3.80;;;3.40;;
84834;SDS011;75078;42.636;23.198;2024-03-23T08:40:06;3.92;;;2.97;;
84834;SDS011;75078;42.636;23.198;2024-03-23T08:42:33;4.07;;;3.53;;
84834;SDS011;75078;42.636;23.198;2024-03-23T08:44:58;4.18;;;2.78;;
84834;SDS011;75078;42.636;23.198;2024-03-23T08:47:24;5.90;;;3.38;;
84834;SDS011;75078;42.636;23.198;2024-03-23T08:49:49;4.25;;;3.40;;
84834;SDS011;75078;42.636;23.198;2024-03-23T08:52:14;8.02;;;3.75;;
84834;SDS011;75078;42.636;23.198;2024-03-23T08:54:40;3.00;;;2.80;;
84834;SDS011;75078;42.636;23.198;2024-03-23T08:57:05;3.35;;;3.15;;
84834;SDS011;75078;42.636;23.198;2024-03-23T08:59:32;5.35;;;3.22;;
84834;SDS011;75078;42.636;23.198;2024-03-23T09:01:57;4.85;;;3.30;;
84834;SDS011;75078;42.636;23.198;2024-03-23T09:04:23;6.30;;;5.78;;
84834;SDS011;75078;42.636;23.198;2024-03-23T09:06:48;6.63;;;4.78;;
84834;SDS011;75078;42.636;23.198;2024-03-23T09:09:14;3.28;;;2.80;;
84834;SDS011;75078;42.636;23.198;2024-03-23T09:11:39;5.45;;;3.72;;
84834;SDS011;75078;42.636;23.198;2024-03-23T09:14:04;5.85;;;3.15;;
84834;SDS011;75078;42.636;23.198;2024-03-23T09:16:30;3.90;;;3.22;;
84834;SDS011;75078;42.636;23.198;2024-03-23T09:18:55;3.22;;;2.60;;
84834;SDS011;75078;42.636;23.198;2024-03-23T09:21:20;3.47;;;3.17;;
84834;SDS011;75078;42.636;23.198;2024-03-23T09:23:46;3.63;;;3.33;;
84834;SDS011;75078;42.636;23.198;2024-03-23T09:26:11;4.65;;;3.33;;
84834;SDS011;75078;42.636;23.198;2024-03-23T09:28:37;4.68;;;3.25;;
84834;SDS011;75078;42.636;23.198;2024-03-23T09:31:03;3.90;;;3.63;;
84834;SDS011;75078;42.636;23.198;2024-03-23T09:33:29;6.00;;;3.53;;
84834;SDS011;75078;42.636;23.198;2024-03-23T09:35:55;3.95;;;3.65;;
84834;SDS011;75078;42.636;23.198;2024-03-23T09:38:21;3.13;;;2.75;;
84834;SDS011;75078;42.636;23.198;2024-03-23T09:40:47;10.82;;;6.30;;
84834;SDS011;75078;42.636;23.198;2024-03-23T09:43:14;4.28;;;3.95;;
84834;SDS011;75078;42.636;23.198;2024-03-23T09:45:40;3.67;;;3.38;;
84834;SDS011;75078;42.636;23.198;2024-03-23T09:48:09;3.72;;;2.92;;
84834;SDS011;75078;42.636;23.198;2024-03-23T09:50:44;3.63;;;2.30;;
84834;SDS011;75078;42.636;23.198;2024-03-23T09:53:11;3.17;;;2.38;;
84834;SDS011;75078;42.636;23.198;2024-03-23T09:55:38;1.92;;;1.83;;
84834;SDS011;75078;42.636;23.198;2024-03-23T09:58:04;2.40;;;2.28;;
84834;SDS011;75078;42.636;23.198;2024-03-23T10:00:30;2.42;;;2.22;;
84834;SDS011;75078;42.636;23.198;2024-03-23T10:02:59;2.22;;;2.03;;
84834;SDS011;75078;42.636;23.198;2024-03-23T10:05:28;3.22;;;2.88;;
84834;SDS011;75078;42.636;23.198;2024-03-23T10:07:54;3.15;;;2.85;;
84834;SDS011;75078;42.636;23.198;2024-03-23T10:10:20;3.92;;;2.72;;
84834;SDS011;75078;42.636;23.198;2024-03-23T10:12:47;3.90;;;3.60;;
84834;SDS011;75078;42.636;23.198;2024-03-23T10:15:19;4.53;;;4.13;;
84834;SDS011;75078;42.636;23.198;2024-03-23T10:17:46;4.47;;;2.80;;
84834;SDS011;75078;42.636;23.198;2024-03-23T10:20:11;4.20;;;2.38;;
84834;SDS011;75078;42.636;23.198;2024-03-23T10:22:37;6.85;;;4.22;;
84834;SDS011;75078;42.636;23.198;2024-03-23T10:25:07;4.28;;;3.30;;
84834;SDS011;75078;42.636;23.198;2024-03-23T10:27:33;6.65;;;2.35;;
84834;SDS011;75078;42.636;23.198;2024-03-23T10:30:07;12.13;;;4.28;;
84834;SDS011;75078;42.636;23.198;2024-03-23T10:32:34;4.07;;;2.97;;
84834;SDS011;75078;42.636;23.198;2024-03-23T10:35:15;6.55;;;2.92;;
84834;SDS011;75078;42.636;23.198;2024-03-23T10:37:44;3.22;;;2.22;;
84834;SDS011;75078;42.636;23.198;2024-03-23T10:40:10;5.15;;;3.03;;
84834;SDS011;75078;42.636;23.198;2024-03-23T10:42:37;4.18;;;2.65;;
84834;SDS011;75078;42.636;23.198;2024-03-23T10:45:04;3.60;;;3.15;;
84834;SDS011;75078;42.636;23.198;2024-03-23T10:47:30;3.47;;;2.42;;
84834;SDS011;75078;42.636;23.198;2024-03-23T10:49:56;4.78;;;2.50;;
84834;SDS011;75078;42.636;23.198;2024-03-23T10:52:22;3.35;;;3.03;;
84834;SDS011;75078;42.636;23.198;2024-03-23T10:54:47;2.97;;;2.55;;
84834;SDS011;75078;42.636;23.198;2024-03-23T10:57:17;3.83;;;3.30;;
84834;SDS011;75078;42.636;23.198;2024-03-23T10:59:45;3.67;;;2.47;;
84834;SDS011;75078;42.636;23.198;2024-03-23T11:02:20;6.45;;;3.05;;
84834;SDS011;75078;42.636;23.198;2024-03-23T11:04:46;3.60;;;3.30;;
84834;SDS011;75078;42.636;23.198;2024-03-23T11:09:49;2.55;;;2.35;;
84834;SDS011;75078;42.636;23.198;2024-03-23T11:14:57;2.53;;;2.33;;
84834;SDS011;75078;42.636;23.198;2024-03-23T11:17:24;2.08;;;1.83;;
84834;SDS011;75078;42.636;23.198;2024-03-23T11:19:54;3.70;;;2.88;;
84834;SDS011;75078;42.636;23.198;2024-03-23T11:22:39;3.53;;;3.17;;
84834;SDS011;75078;42.636;23.198;2024-03-23T11:27:46;3.10;;;2.90;;
84834;SDS011;75078;42.636;23.198;2024-03-23T11:30:13;2.70;;;2.50;;
84834;SDS011;75078;42.636;23.198;2024-03-23T11:32:48;2.45;;;2.20;;
84834;SDS011;75078;42.636;23.198;2024-03-23T11:38:16;2.35;;;2.05;;
84834;SDS011;75078;42.636;23.198;2024-03-23T11:40:46;3.22;;;2.08;;
84834;SDS011;75078;42.636;23.198;2024-03-23T11:45:38;2.07;;;1.73;;
84834;SDS011;75078;42.636;23.198;2024-03-23T11:48:17;2.85;;;2.05;;
84834;SDS011;75078;42.636;23.198;2024-03-23T11:50:44;1.50;;;1.40;;
84834;SDS011;75078;42.636;23.198;2024-03-23T11:55:52;1.57;;;1.43;;
84834;SDS011;75078;42.636;23.198;2024-03-23T11:58:18;1.95;;;1.50;;
84834;SDS011;75078;42.636;23.198;2024-03-23T12:03:27;2.10;;;1.90;;
84834;SDS011;75078;42.636;23.198;2024-03-23T12:05:56;2.63;;;2.42;;
84834;SDS011;75078;42.636;23.198;2024-03-23T12:08:23;1.75;;;1.65;;
84834;SDS011;75078;42.636;23.198;2024-03-23T12:11:08;2.53;;;1.50;;
84834;SDS011;75078;42.636;23.198;2024-03-23T12:13:36;1.48;;;1.33;;
84834;SDS011;75078;42.636;23.198;2024-03-23T12:16:09;1.40;;;1.27;;
84834;SDS011;75078;42.636;23.198;2024-03-23T12:18:34;1.63;;;1.40;;
84834;SDS011;75078;42.636;23.198;2024-03-23T12:21:00;2.10;;;1.95;;
84834;SDS011;75078;42.636;23.198;2024-03-23T12:23:25;2.05;;;1.85;;
84834;SDS011;75078;42.636;23.198;2024-03-23T12:25:50;2.40;;;1.77;;
84834;SDS011;75078;42.636;23.198;2024-03-23T12:28:16;5.95;;;2.72;;
84834;SDS011;75078;42.636;23.198;2024-03-23T12:30:42;1.90;;;1.20;;
84834;SDS011;75078;42.636;23.198;2024-03-23T12:33:07;2.17;;;1.55;;
84834;SDS011;75078;42.636;23.198;2024-03-23T12:35:33;1.58;;;0.98;;
84834;SDS011;75078;42.636;23.198;2024-03-23T12:37:58;1.50;;;1.27;;
84834;SDS011;75078;42.636;23.198;2024-03-23T12:40:24;1.95;;;1.85;;
84834;SDS011;75078;42.636;23.198;2024-03-23T12:42:49;1.38;;;1.15;;
84834;SDS011;75078;42.636;23.198;2024-03-23T12:45:14;1.35;;;0.98;;
84834;SDS011;75078;42.636;23.198;2024-03-23T12:47:40;3.33;;;2.65;;
84834;SDS011;75078;42.636;23.198;2024-03-23T12:50:05;1.23;;;1.13;;
84834;SDS011;75078;42.636;23.198;2024-03-23T12:52:32;1.40;;;1.30;;
84834;SDS011;75078;42.636;23.198;2024-03-23T12:54:58;2.22;;;1.13;;
84834;SDS011;75078;42.636;23.198;2024-03-23T12:57:24;3.60;;;2.35;;
84834;SDS011;75078;42.636;23.198;2024-03-23T12:59:50;1.70;;;1.60;;
84834;SDS011;75078;42.636;23.198;2024-03-23T13:02:19;1.85;;;1.75;;
84834;SDS011;75078;42.636;23.198;2024-03-23T13:04:46;3.72;;;1.60;;
84834;SDS011;75078;42.636;23.198;2024-03-23T13:07:14;0.93;;;0.93;;
84834;SDS011;75078;42.636;23.198;2024-03-23T13:09:40;1.70;;;1.60;;
84834;SDS011;75078;42.636;23.198;2024-03-23T13:12:05;1.10;;;1.10;;
84834;SDS011;75078;42.636;23.198;2024-03-23T13:14:31;6.78;;;1.58;;
84834;SDS011;75078;42.636;23.198;2024-03-23T13:16:56;1.80;;;1.63;;
84834;SDS011;75078;42.636;23.198;2024-03-23T13:19:22;2.83;;;1.58;;
84834;SDS011;75078;42.636;23.198;2024-03-23T13:21:51;3.97;;;2.15;;
84834;SDS011;75078;42.636;23.198;2024-03-23T13:24:17;2.33;;;1.63;;
84834;SDS011;75078;42.636;23.198;2024-03-23T13:26:42;3.63;;;1.38;;
84834;SDS011;75078;42.636;23.198;2024-03-23T13:29:08;1.55;;;1.38;;
84834;SDS011;75078;42.636;23.198;2024-03-23T13:31:33;2.10;;;1.20;;
84834;SDS011;75078;42.636;23.198;2024-03-23T13:33:59;2.30;;;1.90;;
84834;SDS011;75078;42.636;23.198;2024-03-23T13:36:24;3.97;;;1.63;;
84834;SDS011;75078;42.636;23.198;2024-03-23T13:38:50;1.48;;;1.38;;
84834;SDS011;75078;42.636;23.198;2024-03-23T13:41:16;1.70;;;1.60;;
84834;SDS011;75078;42.636;23.198;2024-03-23T13:43:41;2.20;;;2.10;;
84834;SDS011;75078;42.636;23.198;2024-03-23T13:46:07;2.20;;;1.90;;
84834;SDS011;75078;42.636;23.198;2024-03-23T13:48:32;5.20;;;3.15;;
84834;SDS011;75078;42.636;23.198;2024-03-23T13:50:59;2.08;;;1.95;;
84834;SDS011;75078;42.636;23.198;2024-03-23T13:53:25;6.75;;;3.00;;
84834;SDS011;75078;42.636;23.198;2024-03-23T13:55:50;3.03;;;2.15;;
84834;SDS011;75078;42.636;23.198;2024-03-23T13:58:16;13.45;;;3.90;;
84834;SDS011;75078;42.636;23.198;2024-03-23T14:00:41;2.63;;;2.25;;
84834;SDS011;75078;42.636;23.198;2024-03-23T14:03:10;2.50;;;1.85;;
84834;SDS011;75078;42.636;23.198;2024-03-23T14:05:35;3.30;;;1.83;;
84834;SDS011;75078;42.636;23.198;2024-03-23T14:08:04;1.88;;;1.77;;
84834;SDS011;75078;42.636;23.198;2024-03-23T14:10:30;2.42;;;1.80;;
84834;SDS011;75078;42.636;23.198;2024-03-23T14:12:55;1.42;;;1.33;;
84834;SDS011;75078;42.636;23.198;2024-03-23T14:15:20;2.05;;;1.85;;
84834;SDS011;75078;42.636;23.198;2024-03-23T14:17:46;2.85;;;2.10;;
84834;SDS011;75078;42.636;23.198;2024-03-23T14:20:11;6.10;;;2.50;;
84834;SDS011;75078;42.636;23.198;2024-03-23T14:22:38;1.90;;;1.80;;
84834;SDS011;75078;42.636;23.198;2024-03-23T14:25:03;1.52;;;1.42;;
84834;SDS011;75078;42.636;23.198;2024-03-23T14:27:29;4.13;;;2.08;;
84834;SDS011;75078;42.636;23.198;2024-03-23T14:29:54;2.67;;;2.47;;
84834;SDS011;75078;42.636;23.198;2024-03-23T14:32:21;4.38;;;2.03;;
84834;SDS011;75078;42.636;23.198;2024-03-23T14:34:46;2.10;;;1.90;;
84834;SDS011;75078;42.636;23.198;2024-03-23T14:37:12;4.38;;;2.55;;
84834;SDS011;75078;42.636;23.198;2024-03-23T14:39:37;3.13;;;2.45;;
84834;SDS011;75078;42.636;23.198;2024-03-23T14:42:06;3.20;;;2.92;;
84834;SDS011;75078;42.636;23.198;2024-03-23T14:44:33;2.30;;;2.10;;
84834;SDS011;75078;42.636;23.198;2024-03-23T14:46:58;3.35;;;1.77;;
84834;SDS011;75078;42.636;23.198;2024-03-23T14:49:24;1.70;;;1.40;;
84834;SDS011;75078;42.636;23.198;2024-03-23T14:51:49;2.55;;;1.90;;
84834;SDS011;75078;42.636;23.198;2024-03-23T14:54:15;4.75;;;2.22;;
84834;SDS011;75078;42.636;23.198;2024-03-23T14:56:40;4.38;;;2.95;;
84834;SDS011;75078;42.636;23.198;2024-03-23T14:59:06;5.28;;;2.55;;
84834;SDS011;75078;42.636;23.198;2024-03-23T15:01:32;3.65;;;2.67;;
84834;SDS011;75078;42.636;23.198;2024-03-23T15:03:57;4.35;;;2.63;;
84834;SDS011;75078;42.636;23.198;2024-03-23T15:06:23;5.10;;;2.25;;
84834;SDS011;75078;42.636;23.198;2024-03-23T15:08:48;6.95;;;3.38;;
84834;SDS011;75078;42.636;23.198;2024-03-23T15:11:14;4.95;;;4.45;;
84834;SDS011;75078;42.636;23.198;2024-03-23T15:13:39;5.75;;;3.22;;
84834;SDS011;75078;42.636;23.198;2024-03-23T15:16:05;3.72;;;2.13;;
84834;SDS011;75078;42.636;23.198;2024-03-23T15:18:33;2.40;;;2.08;;
84834;SDS011;75078;42.636;23.198;2024-03-23T15:21:00;2.75;;;2.53;;
84834;SDS011;75078;42.636;23.198;2024-03-23T15:23:27;3.88;;;3.25;;
84834;SDS011;75078;42.636;23.198;2024-03-23T15:25:56;4.05;;;2.35;;
84834;SDS011;75078;42.636;23.198;2024-03-23T15:28:23;7.95;;;2.28;;
84834;SDS011;75078;42.636;23.198;2024-03-23T15:30:48;10.68;;;3.97;;
84834;SDS011;75078;42.636;23.198;2024-03-23T15:33:14;4.75;;;1.88;;
84834;SDS011;75078;42.636;23.198;2024-03-23T15:35:40;3.67;;;2.92;;
84834;SDS011;75078;42.636;23.198;2024-03-23T15:38:05;6.95;;;3.08;;